createdAt,value
2019-03-20T00:00:44.627Z,101691.45
2019-03-20T00:03:15.110Z,101687.04
2019-03-20T00:05:45.531Z,101690.09
2019-03-20T00:08:16.009Z,101682.98
2019-03-20T00:10:46.400Z,101691.79
2019-03-20T00:13:16.881Z,101697.72
2019-03-20T00:15:47.288Z,101692.45
2019-03-20T00:18:17.737Z,101696.67
2019-03-20T00:20:48.136Z,101687.02
2019-03-20T00:23:19.650Z,101686.50
2019-03-20T00:25:50.077Z,101680.87
2019-03-20T00:28:20.548Z,101679.68
2019-03-20T00:30:50.965Z,101681.03
2019-03-20T00:33:21.446Z,101682.06
2019-03-20T00:35:51.945Z,101681.36
2019-03-20T00:38:22.419Z,101684.39
2019-03-20T00:40:52.935Z,101684.77
2019-03-20T00:43:23.424Z,101683.53
2019-03-20T00:45:53.821Z,101679.82
2019-03-20T00:48:24.326Z,101673.23
2019-03-20T00:50:54.719Z,101673.73
2019-03-20T00:53:25.220Z,101667.48
2019-03-20T00:55:55.643Z,101669.70
2019-03-20T00:58:26.143Z,101671.55
2019-03-20T01:00:56.542Z,101678.98
2019-03-20T01:03:27.005Z,101674.78
2019-03-20T01:05:57.470Z,101674.04
2019-03-20T01:08:27.951Z,101674.37
2019-03-20T01:10:58.386Z,101676.91
2019-03-20T01:13:28.863Z,101677.94
2019-03-20T01:15:59.270Z,101678.43
2019-03-20T01:18:29.761Z,101672.31
2019-03-20T01:21:00.280Z,101671.67
2019-03-20T01:23:31.772Z,101673.67
2019-03-20T01:26:02.166Z,101678.92
2019-03-20T01:28:32.615Z,101676.22
2019-03-20T01:31:03.002Z,101677.19
2019-03-20T01:33:33.471Z,101678.67
2019-03-20T01:36:03.899Z,101678.89
2019-03-20T01:38:34.367Z,101675.45
2019-03-20T01:41:04.767Z,101679.67
2019-03-20T01:43:35.228Z,101678.00
2019-03-20T01:46:05.761Z,101676.97
2019-03-20T01:48:36.217Z,101675.03
2019-03-20T01:51:20.828Z,101684.30
2019-03-20T01:53:51.284Z,101685.69
2019-03-20T01:56:21.679Z,101682.53
2019-03-20T01:58:52.065Z,101682.28
2019-03-20T02:01:22.411Z,101685.33
2019-03-20T02:03:52.897Z,101688.24
2019-03-20T02:06:23.332Z,101685.75
2019-03-20T02:08:53.775Z,101682.88
2019-03-20T02:11:24.203Z,101678.31
2019-03-20T02:13:54.727Z,101676.39
2019-03-20T02:16:25.140Z,101678.81
2019-03-20T02:18:55.584Z,101689.58
2019-03-20T02:21:25.982Z,101685.69
2019-03-20T02:23:57.391Z,101686.53
2019-03-20T02:26:27.847Z,101689.29
2019-03-20T02:28:58.337Z,101685.19
2019-03-20T02:31:28.812Z,101685.48
2019-03-20T02:33:59.294Z,101687.80
2019-03-20T02:36:29.766Z,101694.56
2019-03-20T02:39:00.278Z,101701.00
2019-03-20T02:41:30.677Z,101696.29
2019-03-20T02:44:01.565Z,101699.72
2019-03-20T02:46:31.978Z,101701.81
2019-03-20T02:49:02.432Z,101706.84
2019-03-20T02:51:32.875Z,101706.96
2019-03-20T02:54:03.359Z,101712.17
2019-03-20T02:56:33.759Z,101705.27
2019-03-20T02:59:04.253Z,101709.45
2019-03-20T03:01:34.687Z,101707.78
2019-03-20T03:04:05.338Z,101710.71
2019-03-20T03:06:35.775Z,101708.75
2019-03-20T03:09:08.270Z,101708.11
2019-03-20T03:11:38.691Z,101709.80
2019-03-20T03:14:09.164Z,101708.78
2019-03-20T03:16:39.581Z,101713.50
2019-03-20T03:19:10.022Z,101706.52
2019-03-20T03:21:40.466Z,101708.92
2019-03-20T03:24:11.959Z,101712.39
2019-03-20T03:26:42.395Z,101716.84
2019-03-20T03:29:12.866Z,101728.58
2019-03-20T03:31:43.302Z,101724.61
2019-03-20T03:34:13.776Z,101726.08
2019-03-20T03:36:44.210Z,101733.39
2019-03-20T03:39:14.679Z,101728.08
2019-03-20T03:41:45.117Z,101730.58
2019-03-20T03:44:15.598Z,101737.95
2019-03-20T03:46:46.006Z,101739.17
2019-03-20T03:49:16.798Z,101741.21
2019-03-20T03:51:47.211Z,101739.30
2019-03-20T03:54:17.658Z,101742.19
2019-03-20T03:56:48.888Z,101740.95
2019-03-20T03:59:19.259Z,101739.73
2019-03-20T04:01:49.746Z,101743.70
2019-03-20T04:04:20.184Z,101746.91
2019-03-20T04:06:50.592Z,101739.45
2019-03-20T04:09:21.063Z,101745.13
2019-03-20T04:11:51.478Z,101749.29
2019-03-20T04:14:21.933Z,101749.94
2019-03-20T04:16:52.375Z,101738.00
2019-03-20T04:19:22.833Z,101751.05
2019-03-20T04:21:53.228Z,101755.13
2019-03-20T04:24:24.777Z,101750.20
2019-03-20T04:26:56.073Z,101753.00
2019-03-20T04:29:26.524Z,101759.50
2019-03-20T04:31:56.972Z,101758.69
2019-03-20T04:34:27.466Z,101757.15
2019-03-20T04:36:57.991Z,101753.48
2019-03-20T04:39:28.460Z,101748.01
2019-03-20T04:41:58.867Z,101751.34
2019-03-20T04:44:29.348Z,101755.48
2019-03-20T04:46:59.807Z,101757.09
2019-03-20T04:49:30.283Z,101762.70
2019-03-20T04:52:00.727Z,101763.95
2019-03-20T04:54:31.188Z,101768.77
2019-03-20T04:57:01.644Z,101769.47
2019-03-20T04:59:32.097Z,101774.98
2019-03-20T05:02:02.502Z,101769.19
2019-03-20T05:04:33.005Z,101766.78
2019-03-20T05:07:03.440Z,101776.77
2019-03-20T05:09:33.952Z,101773.95
2019-03-20T05:12:04.420Z,101772.31
2019-03-20T05:14:34.884Z,101776.25
2019-03-20T05:17:05.351Z,101772.55
2019-03-20T05:19:35.816Z,101779.15
2019-03-20T05:22:06.349Z,101776.02
2019-03-20T05:24:37.782Z,101785.64
2019-03-20T05:27:08.207Z,101792.66
2019-03-20T05:29:38.652Z,101789.49
2019-03-20T05:32:09.068Z,101779.28
2019-03-20T05:34:39.538Z,101781.19
2019-03-20T05:37:10.902Z,101784.67
2019-03-20T05:39:41.470Z,101793.08
2019-03-20T05:42:11.892Z,101790.98
2019-03-20T05:44:42.341Z,101785.17
2019-03-20T05:47:12.777Z,101792.55
2019-03-20T05:49:43.221Z,101795.63
2019-03-20T05:52:13.659Z,101790.47
2019-03-20T05:54:44.130Z,101796.77
2019-03-20T05:57:14.586Z,101795.84
2019-03-20T05:59:45.042Z,101797.06
2019-03-20T06:02:15.483Z,101790.91
2019-03-20T06:04:45.976Z,101793.72
2019-03-20T06:07:21.561Z,101792.38
2019-03-20T06:09:48.586Z,101791.71
2019-03-20T06:12:19.394Z,101800.26
2019-03-20T06:14:49.880Z,101792.73
2019-03-20T06:17:20.336Z,101797.77
2019-03-20T06:19:50.789Z,101795.92
2019-03-20T06:22:22.556Z,101794.21
2019-03-20T06:24:54.998Z,101802.86
2019-03-20T06:27:25.425Z,101801.27
2019-03-20T06:29:55.867Z,101800.45
2019-03-20T06:32:26.295Z,101802.30
2019-03-20T06:34:56.754Z,101796.16
2019-03-20T06:37:32.494Z,101797.96
2019-03-20T06:39:59.395Z,101793.83
2019-03-20T06:42:29.876Z,101785.81
2019-03-20T06:45:00.405Z,101785.69
2019-03-20T06:47:31.637Z,101787.94
2019-03-20T06:50:02.115Z,101788.60
2019-03-20T06:52:32.549Z,101777.38
2019-03-20T06:55:03.049Z,101783.63
2019-03-20T06:57:33.470Z,101788.10
2019-03-20T07:00:29.393Z,101786.74
2019-03-20T07:03:01.389Z,101793.98
2019-03-20T07:06:04.850Z,101793.02
2019-03-20T07:08:53.021Z,101789.58
2019-03-20T07:11:22.245Z,101788.87
2019-03-20T07:13:52.689Z,101791.52
2019-03-20T07:16:23.181Z,101786.95
2019-03-20T07:18:53.623Z,101787.05
2019-03-20T07:21:24.093Z,101796.49
2019-03-20T07:23:54.529Z,101792.81
2019-03-20T07:26:25.958Z,101794.02
2019-03-20T07:28:56.402Z,101789.77
2019-03-20T07:31:26.845Z,101795.70
2019-03-20T07:33:57.262Z,101797.60
2019-03-20T07:36:27.711Z,101795.14
2019-03-20T07:38:58.147Z,101791.28
2019-03-20T07:41:28.623Z,101790.75
2019-03-20T07:44:00.256Z,101791.77
2019-03-20T07:46:30.748Z,101778.98
2019-03-20T07:49:01.186Z,101785.78
2019-03-20T07:51:31.633Z,101785.95
2019-03-20T07:54:02.041Z,101776.63
2019-03-20T07:56:32.528Z,101781.70
2019-03-20T07:59:03.385Z,101777.81
2019-03-20T08:01:34.073Z,101777.49
2019-03-20T08:04:04.635Z,101778.33
2019-03-20T08:06:39.425Z,101779.17
2019-03-20T08:09:12.837Z,101776.97
2019-03-20T08:11:50.396Z,101776.12
2019-03-20T08:14:22.863Z,101778.00
2019-03-20T08:16:53.412Z,101772.70
2019-03-20T08:19:25.294Z,101769.17
2019-03-20T08:21:55.822Z,101771.00
2019-03-20T08:24:26.449Z,101770.28
2019-03-20T08:27:12.357Z,101763.75
2019-03-20T08:29:49.274Z,101763.88
2019-03-20T08:32:19.782Z,101764.19
2019-03-20T08:34:50.233Z,101763.02
2019-03-20T08:37:20.797Z,101763.80
2019-03-20T08:39:51.231Z,101755.49
2019-03-20T08:42:22.544Z,101758.09
2019-03-20T08:44:55.402Z,101764.06
2019-03-20T08:47:27.695Z,101753.75
2019-03-20T08:49:58.169Z,101752.94
2019-03-20T08:52:32.668Z,101752.19
2019-03-20T08:55:10.417Z,101753.55
2019-03-20T08:57:44.011Z,101754.27
2019-03-20T09:00:25.240Z,101751.73
2019-03-20T09:03:11.761Z,101751.47
2019-03-20T09:05:49.775Z,101759.42
2019-03-20T09:08:29.467Z,101754.19
2019-03-20T09:10:54.722Z,101748.97
2019-03-20T09:13:28.422Z,101752.27
2019-03-20T09:16:01.363Z,101748.34
2019-03-20T09:18:36.284Z,101736.91
2019-03-20T09:21:06.760Z,101743.60
2019-03-20T09:23:37.302Z,101734.73
2019-03-20T09:26:07.781Z,101734.73
2019-03-20T09:28:39.309Z,101742.27
2019-03-20T09:31:09.725Z,101742.27
2019-03-20T09:33:41.731Z,101746.47
2019-03-20T09:36:12.231Z,101738.20
2019-03-20T09:38:44.247Z,101738.20
2019-03-20T09:41:14.662Z,101737.10
2019-03-20T09:43:45.139Z,101738.24
2019-03-20T09:46:15.600Z,101739.73
2019-03-20T09:48:46.083Z,101743.91
2019-03-20T09:51:27.054Z,101739.99
2019-03-20T09:54:01.545Z,101734.41
2019-03-20T09:56:32.247Z,101732.89
2019-03-20T09:59:03.225Z,101735.59
2019-03-20T10:01:40.947Z,101735.55
2019-03-20T10:04:18.874Z,101740.50
2019-03-20T10:07:00.618Z,101736.92
2019-03-20T10:09:31.118Z,101733.45
2019-03-20T10:12:01.542Z,101729.95
2019-03-20T10:14:32.069Z,101725.77
2019-03-20T10:17:02.502Z,101728.09
2019-03-20T10:19:33.166Z,101728.92
2019-03-20T10:22:03.608Z,101733.03
2019-03-20T10:24:34.273Z,101723.65
2019-03-20T10:27:04.895Z,101721.98
2019-03-20T10:29:40.585Z,101723.47
2019-03-20T10:32:11.190Z,101715.64
2019-03-20T10:34:41.959Z,101714.06
2019-03-20T10:37:13.474Z,101718.27
2019-03-20T10:39:43.977Z,101712.94
2019-03-20T10:42:14.405Z,101712.81
2019-03-20T10:44:44.993Z,101708.46
2019-03-20T10:47:15.564Z,101705.17
2019-03-20T10:49:46.220Z,101703.07
2019-03-20T10:52:21.302Z,101691.08
2019-03-20T10:54:52.275Z,101692.11
2019-03-20T10:57:22.838Z,101692.92
2019-03-20T10:59:53.469Z,101690.84
2019-03-20T11:02:24.077Z,101689.98
2019-03-20T11:04:57.742Z,101686.75
2019-03-20T11:07:28.219Z,101689.42
2019-03-20T11:09:58.810Z,101690.45
2019-03-20T11:12:30.966Z,101687.73
2019-03-20T11:16:55.107Z,101684.13
2019-03-20T11:19:26.189Z,101685.11
2019-03-20T11:21:56.725Z,101687.30
2019-03-20T11:24:27.317Z,101682.38
2019-03-20T11:26:57.836Z,101674.01
2019-03-20T11:29:39.776Z,101672.47
2019-03-20T11:32:25.066Z,101675.54
2019-03-20T11:35:03.206Z,101670.55
2019-03-20T11:37:40.442Z,101670.20
2019-03-20T11:40:30.143Z,101663.38
2019-03-20T11:43:02.035Z,101658.63
2019-03-20T11:45:34.421Z,101661.11
2019-03-20T11:48:08.385Z,101661.25
2019-03-20T11:50:45.130Z,101652.04
2019-03-20T11:53:17.116Z,101649.05
2019-03-20T11:55:48.191Z,101645.33
2019-03-20T11:58:23.002Z,101648.59
2019-03-20T12:01:03.620Z,101648.72
2019-03-20T12:03:36.350Z,101648.66
2019-03-20T12:06:21.862Z,101651.42
2019-03-20T12:08:57.792Z,101647.52
2019-03-20T12:11:45.203Z,101638.39
2019-03-20T12:14:07.804Z,101642.02
2019-03-20T12:16:42.672Z,101630.31
2019-03-20T12:19:16.825Z,101637.50
2019-03-20T12:21:53.281Z,101634.92
2019-03-20T12:24:24.329Z,101633.89
2019-03-20T12:26:55.238Z,101636.67
2019-03-20T12:29:25.761Z,101632.39
2019-03-20T12:31:56.202Z,101628.00
2019-03-20T12:34:27.613Z,101629.63
2019-03-20T12:36:58.103Z,101632.52
2019-03-20T12:39:28.613Z,101624.66
2019-03-20T12:42:00.174Z,101622.20
2019-03-20T12:44:30.611Z,101621.72
2019-03-20T12:47:01.052Z,101614.03
2019-03-20T12:49:31.557Z,101617.22
2019-03-20T12:52:02.368Z,101618.73
2019-03-20T12:54:33.548Z,101616.66
2019-03-20T12:57:03.973Z,101617.58
2019-03-20T12:59:34.933Z,101612.49
2019-03-20T13:02:08.166Z,101619.50
2019-03-20T13:04:38.699Z,101610.70
2019-03-20T13:07:46.273Z,101608.25
2019-03-20T13:10:22.404Z,101610.75
2019-03-20T13:13:01.421Z,101606.36
2019-03-20T13:18:54.972Z,101605.22
2019-03-20T13:21:32.696Z,101594.08
2019-03-20T13:24:15.120Z,101598.68
2019-03-20T13:26:55.248Z,101589.24
2019-03-20T13:29:32.055Z,101582.34
2019-03-20T13:32:04.805Z,101589.78
2019-03-20T13:34:38.366Z,101583.95
2019-03-20T13:37:09.441Z,101584.25
2019-03-20T13:39:39.886Z,101578.54
2019-03-20T13:42:10.366Z,101572.81
2019-03-20T13:44:40.935Z,101570.13
2019-03-20T13:47:11.403Z,101574.44
2019-03-20T13:49:41.856Z,101571.92
2019-03-20T13:52:12.654Z,101576.50
2019-03-20T13:54:43.206Z,101567.52
2019-03-20T13:57:13.678Z,101569.80
2019-03-20T13:59:44.165Z,101567.80
2019-03-20T14:02:14.675Z,101570.82
2019-03-20T14:04:45.252Z,101569.24
2019-03-20T14:07:15.751Z,101570.01
